createdAt,value
2018-08-31T00:00:35.133Z,12.78
2018-08-31T00:01:35.123Z,12.71
2018-08-31T00:02:35.116Z,12.78
2018-08-31T00:03:35.094Z,12.75
2018-08-31T00:04:35.081Z,12.75
2018-08-31T00:05:35.063Z,12.74
2018-08-31T00:06:35.057Z,12.72
2018-08-31T00:07:35.103Z,12.71
2018-08-31T00:08:35.028Z,12.70
2018-08-31T00:09:35.116Z,12.71
2018-08-31T00:10:35.003Z,12.70
2018-08-31T00:11:34.984Z,12.82
2018-08-31T00:12:34.966Z,12.74
2018-08-31T00:13:34.967Z,12.74
2018-08-31T00:14:34.956Z,12.75
2018-08-31T00:15:34.935Z,12.79
2018-08-31T00:16:34.918Z,12.93
2018-08-31T00:17:34.911Z,12.83
2018-08-31T00:18:34.959Z,12.83
2018-08-31T00:19:34.883Z,12.82
2018-08-31T00:20:34.866Z,12.87
2018-08-31T00:21:34.846Z,12.87
2018-08-31T00:22:34.844Z,12.93
2018-08-31T00:23:34.831Z,12.95
2018-08-31T00:24:34.870Z,12.93
2018-08-31T00:25:34.805Z,12.97
2018-08-31T00:26:34.787Z,13.00
2018-08-31T00:27:34.762Z,13.03
2018-08-31T00:28:34.766Z,12.95
2018-08-31T00:29:34.754Z,12.92
2018-08-31T00:30:34.787Z,12.87
2018-08-31T00:31:34.713Z,12.95
2018-08-31T00:32:34.707Z,12.89
2018-08-31T00:33:34.694Z,12.82
2018-08-31T00:34:34.676Z,12.95
2018-08-31T00:35:34.668Z,12.93
2018-08-31T00:36:34.655Z,12.92
2018-08-31T00:37:34.629Z,13.01
2018-08-31T00:38:34.613Z,12.96
2018-08-31T00:39:34.640Z,13.01
2018-08-31T00:40:34.589Z,12.96
2018-08-31T00:41:34.570Z,12.95
2018-08-31T00:42:34.566Z,13.08
2018-08-31T00:43:34.556Z,13.07
2018-08-31T00:44:34.599Z,13.00
2018-08-31T00:45:34.522Z,12.95
2018-08-31T00:46:34.513Z,12.97
2018-08-31T00:47:34.496Z,12.96
2018-08-31T00:48:34.485Z,12.89
2018-08-31T00:49:34.462Z,12.93
2018-08-31T00:50:34.463Z,12.87
2018-08-31T00:51:34.447Z,12.90
2018-08-31T00:52:34.428Z,12.85
2018-08-31T00:53:34.459Z,12.92
2018-08-31T00:54:34.405Z,12.90
2018-08-31T00:55:34.389Z,12.92
2018-08-31T00:56:34.384Z,12.90
2018-08-31T00:57:34.362Z,12.82
2018-08-31T00:58:34.350Z,12.92
2018-08-31T00:59:34.362Z,12.87
2018-08-31T01:00:34.317Z,12.86
2018-08-31T01:01:34.315Z,12.85
2018-08-31T01:02:34.296Z,12.82
2018-08-31T01:03:34.295Z,12.71
2018-08-31T01:04:34.309Z,12.71
2018-08-31T01:05:34.261Z,12.74
2018-08-31T01:06:34.242Z,12.68
2018-08-31T01:07:34.223Z,12.71
2018-08-31T01:08:34.218Z,12.71
2018-08-31T01:09:34.199Z,12.68
2018-08-31T01:10:34.196Z,12.68
2018-08-31T01:11:34.173Z,12.54
2018-08-31T01:12:34.161Z,12.57
2018-08-31T01:13:34.151Z,12.53
2018-08-31T01:14:34.135Z,12.59
2018-08-31T01:15:34.190Z,12.59
2018-08-31T01:16:34.100Z,12.54
2018-08-31T01:17:34.091Z,12.54
2018-08-31T01:18:34.084Z,12.56
2018-08-31T01:19:34.068Z,12.50
2018-08-31T01:20:34.063Z,12.53
2018-08-31T01:21:34.064Z,12.50
2018-08-31T01:22:34.020Z,12.49
2018-08-31T01:23:34.005Z,12.56
2018-08-31T01:24:33.995Z,12.53
2018-08-31T01:25:34.016Z,12.45
2018-08-31T01:26:33.965Z,12.54
2018-08-31T01:27:33.962Z,12.57
2018-08-31T01:28:33.932Z,12.56
2018-08-31T01:29:33.917Z,12.39
2018-08-31T01:30:33.965Z,12.50
2018-08-31T01:31:33.900Z,12.41
2018-08-31T01:32:33.883Z,12.35
2018-08-31T01:33:33.870Z,12.35
2018-08-31T01:34:33.864Z,12.35
2018-08-31T01:35:33.835Z,12.38
2018-08-31T01:36:33.853Z,12.31
2018-08-31T01:37:33.818Z,12.41
2018-08-31T01:38:33.794Z,12.39
2018-08-31T01:39:33.796Z,12.41
2018-08-31T01:40:33.773Z,12.41
2018-08-31T01:41:33.768Z,12.38
2018-08-31T01:42:33.752Z,12.46
2018-08-31T01:43:33.724Z,12.49
2018-08-31T01:44:33.712Z,12.56
2018-08-31T01:45:33.705Z,12.54
2018-08-31T01:46:33.692Z,12.59
2018-08-31T01:47:33.713Z,12.59
2018-08-31T01:48:33.666Z,12.54
2018-08-31T01:49:33.678Z,12.50
2018-08-31T01:50:33.634Z,12.50
2018-08-31T01:51:33.620Z,12.49
2018-08-31T01:52:33.643Z,12.56
2018-08-31T01:53:33.623Z,12.53
2018-08-31T01:54:33.581Z,12.57
2018-08-31T01:55:33.570Z,12.56
2018-08-31T01:56:33.560Z,12.54
2018-08-31T01:57:33.547Z,12.53
2018-08-31T01:58:33.555Z,12.53
2018-08-31T01:59:33.517Z,12.49
2018-08-31T02:00:33.501Z,12.56
2018-08-31T02:01:33.494Z,12.56
2018-08-31T02:02:33.474Z,12.41
2018-08-31T02:03:33.507Z,12.42
2018-08-31T02:04:33.446Z,12.35
2018-08-31T02:05:33.429Z,12.41
2018-08-31T02:06:33.416Z,12.34
2018-08-31T02:07:33.411Z,12.45
2018-08-31T02:08:33.393Z,12.47
2018-08-31T02:09:33.380Z,12.39
2018-08-31T02:10:33.352Z,12.38
2018-08-31T02:11:33.340Z,12.41
2018-08-31T02:12:33.329Z,12.52
2018-08-31T02:13:33.382Z,12.39
2018-08-31T02:14:33.309Z,12.35
2018-08-31T02:15:33.288Z,12.35
2018-08-31T02:16:33.284Z,12.35
2018-08-31T02:17:33.251Z,12.32
2018-08-31T02:18:33.246Z,12.27
2018-08-31T02:19:33.546Z,12.28
2018-08-31T02:20:33.229Z,12.24
2018-08-31T02:21:33.201Z,12.17
2018-08-31T02:22:33.197Z,12.20
2018-08-31T02:23:33.185Z,12.23
2018-08-31T02:24:33.187Z,12.23
2018-08-31T02:25:33.152Z,12.20
2018-08-31T02:26:33.131Z,12.14
2018-08-31T02:27:33.131Z,12.17
2018-08-31T02:28:33.116Z,12.07
2018-08-31T02:29:33.124Z,12.04
2018-08-31T02:30:33.132Z,12.07
2018-08-31T02:31:33.068Z,12.13
2018-08-31T02:32:33.048Z,12.10
2018-08-31T02:33:33.045Z,12.02
2018-08-31T02:34:33.033Z,12.07
2018-08-31T02:35:33.011Z,12.10
2018-08-31T02:36:33.050Z,12.09
2018-08-31T02:37:32.978Z,12.05
2018-08-31T02:38:32.980Z,11.98
2018-08-31T02:39:32.959Z,12.04
2018-08-31T02:40:32.948Z,11.96
2018-08-31T02:41:32.939Z,11.95
2018-08-31T02:42:32.915Z,11.95
2018-08-31T02:43:32.903Z,11.80
2018-08-31T02:44:32.882Z,11.83
2018-08-31T02:45:32.869Z,11.82
2018-08-31T02:46:32.885Z,11.78
2018-08-31T02:47:32.844Z,11.76
2018-08-31T02:48:32.855Z,11.83
2018-08-31T02:49:32.812Z,11.80
2018-08-31T02:50:32.811Z,11.82
2018-08-31T02:51:32.784Z,11.78
2018-08-31T02:52:32.827Z,11.80
2018-08-31T02:53:32.761Z,11.80
2018-08-31T02:54:32.740Z,11.82
2018-08-31T02:55:32.732Z,11.86
2018-08-31T02:56:32.717Z,11.86
2018-08-31T02:57:32.697Z,11.88
2018-08-31T02:58:32.696Z,11.82
2018-08-31T02:59:32.682Z,11.86
2018-08-31T03:00:32.664Z,11.94
2018-08-31T03:01:32.635Z,11.91
2018-08-31T03:02:32.633Z,11.94
2018-08-31T03:03:32.635Z,12.02
2018-08-31T03:04:32.888Z,11.98
2018-08-31T03:05:32.590Z,11.98
2018-08-31T03:06:32.577Z,12.05
2018-08-31T03:07:32.563Z,12.10
2018-08-31T03:08:32.542Z,12.05
2018-08-31T03:09:32.528Z,11.98
2018-08-31T03:10:32.556Z,11.99
2018-08-31T03:11:32.623Z,12.04
2018-08-31T03:12:32.496Z,11.82
2018-08-31T03:13:32.472Z,12.01
2018-08-31T03:14:32.454Z,11.96
2018-08-31T03:15:32.477Z,11.98
2018-08-31T03:16:32.466Z,12.05
2018-08-31T03:17:32.418Z,12.07
2018-08-31T03:18:32.444Z,12.07
2018-08-31T03:19:32.411Z,12.13
2018-08-31T03:20:32.379Z,12.01
2018-08-31T03:21:32.356Z,12.01
2018-08-31T03:22:32.370Z,12.04
2018-08-31T03:23:32.339Z,11.96
2018-08-31T03:24:32.322Z,11.96
2018-08-31T03:25:32.297Z,11.99
2018-08-31T03:26:32.295Z,11.95
2018-08-31T03:27:32.297Z,11.90
2018-08-31T03:28:32.260Z,11.86
2018-08-31T03:29:32.300Z,11.91
2018-08-31T03:30:32.248Z,11.91
2018-08-31T03:31:32.222Z,11.94
2018-08-31T03:32:32.210Z,11.83
2018-08-31T03:33:32.193Z,11.94
2018-08-31T03:34:32.171Z,11.80
2018-08-31T03:35:32.196Z,11.95
2018-08-31T03:36:32.157Z,11.91
2018-08-31T03:37:32.136Z,11.88
2018-08-31T03:38:32.126Z,11.80
2018-08-31T03:39:32.103Z,11.86
2018-08-31T03:40:32.127Z,11.86
2018-08-31T03:41:32.087Z,11.90
2018-08-31T03:42:32.356Z,11.95
2018-08-31T03:43:32.051Z,11.95
2018-08-31T03:44:32.033Z,11.96
2018-08-31T03:45:32.018Z,11.94
2018-08-31T03:46:32.012Z,11.96
2018-08-31T03:47:32.003Z,11.96
2018-08-31T03:48:32.017Z,11.95
2018-08-31T03:49:31.975Z,11.96
2018-08-31T03:50:31.949Z,11.94
2018-08-31T03:51:31.945Z,12.04
2018-08-31T03:52:31.953Z,11.96
2018-08-31T03:53:31.921Z,11.99
2018-08-31T03:54:31.898Z,12.04
2018-08-31T03:55:31.881Z,12.01
2018-08-31T03:56:31.872Z,12.04
2018-08-31T03:57:31.848Z,12.07
2018-08-31T03:58:31.835Z,12.09
2018-08-31T03:59:31.828Z,11.94
2018-08-31T04:00:31.834Z,11.95
2018-08-31T04:01:31.835Z,11.94
2018-08-31T04:02:31.779Z,12.02
2018-08-31T04:03:31.762Z,11.88
2018-08-31T04:04:31.748Z,11.94
2018-08-31T04:05:31.729Z,11.99
2018-08-31T04:06:31.742Z,11.86
2018-08-31T04:07:31.708Z,11.85
2018-08-31T04:08:31.699Z,11.90
2018-08-31T04:09:31.684Z,11.88
2018-08-31T04:10:31.667Z,11.85
2018-08-31T04:11:31.685Z,11.95
2018-08-31T04:12:31.636Z,11.94
2018-08-31T04:13:31.626Z,11.88
2018-08-31T04:14:31.649Z,11.88
2018-08-31T04:15:31.597Z,11.76
2018-08-31T04:16:31.582Z,11.86
2018-08-31T04:17:31.563Z,11.91
2018-08-31T04:18:31.560Z,11.94
2018-08-31T04:19:31.610Z,11.94
2018-08-31T04:20:31.529Z,11.98
2018-08-31T04:21:31.511Z,11.95
2018-08-31T04:22:31.542Z,12.05
2018-08-31T04:23:31.486Z,11.99
2018-08-31T04:24:31.463Z,12.07
2018-08-31T04:25:31.491Z,12.13
2018-08-31T04:26:31.439Z,12.07
2018-08-31T04:27:31.425Z,12.05
2018-08-31T04:28:31.428Z,12.14
2018-08-31T04:29:31.397Z,12.12
2018-08-31T04:30:31.418Z,12.17
2018-08-31T04:31:31.371Z,12.16
2018-08-31T04:32:31.347Z,12.20
2018-08-31T04:33:31.341Z,12.20
2018-08-31T04:34:31.338Z,12.14
2018-08-31T04:35:31.344Z,12.16
2018-08-31T04:36:31.309Z,12.21
2018-08-31T04:37:31.323Z,12.23
2018-08-31T04:38:31.271Z,12.27
2018-08-31T04:39:31.258Z,12.20
2018-08-31T04:40:31.239Z,12.31
2018-08-31T04:41:31.263Z,12.27
2018-08-31T04:42:31.249Z,12.23
2018-08-31T04:43:31.220Z,12.29
2018-08-31T04:44:31.189Z,12.23
2018-08-31T04:45:31.193Z,12.14
2018-08-31T04:46:31.167Z,12.16
2018-08-31T04:47:31.179Z,12.17
2018-08-31T04:48:31.130Z,12.10
2018-08-31T04:49:31.119Z,12.13
2018-08-31T04:50:31.139Z,12.14
2018-08-31T04:51:31.082Z,12.12
2018-08-31T04:52:31.135Z,12.17
2018-08-31T04:53:31.050Z,12.20
2018-08-31T04:54:31.044Z,12.17
2018-08-31T04:55:31.025Z,12.16
2018-08-31T04:56:31.016Z,12.19
2018-08-31T04:57:30.999Z,12.24
2018-08-31T04:58:31.003Z,12.17
2018-08-31T04:59:30.975Z,12.16
2018-08-31T05:00:30.956Z,12.16
2018-08-31T05:01:30.948Z,12.19
2018-08-31T05:02:30.930Z,12.20
2018-08-31T05:03:30.920Z,12.20
2018-08-31T05:04:30.903Z,12.14
2018-08-31T05:05:30.887Z,12.16
2018-08-31T05:06:30.864Z,12.23
2018-08-31T05:07:30.860Z,12.19
2018-08-31T05:08:30.923Z,12.20
2018-08-31T05:09:30.825Z,12.27
2018-08-31T05:10:30.822Z,12.14
2018-08-31T05:11:30.806Z,12.16
2018-08-31T05:12:30.788Z,12.19
2018-08-31T05:13:30.775Z,12.17
2018-08-31T05:14:30.797Z,12.20
2018-08-31T05:15:30.744Z,12.17
2018-08-31T05:16:30.735Z,12.23
2018-08-31T05:17:30.719Z,12.21
2018-08-31T05:18:30.718Z,12.27
2018-08-31T05:19:30.743Z,12.21
2018-08-31T05:20:30.681Z,12.17
2018-08-31T05:21:30.672Z,12.23
2018-08-31T05:22:30.680Z,12.28
2018-08-31T05:23:30.641Z,12.19
2018-08-31T05:24:30.636Z,12.21
2018-08-31T05:25:30.628Z,12.23
2018-08-31T05:26:30.592Z,12.23
2018-08-31T05:27:30.582Z,12.24
2018-08-31T05:28:30.683Z,12.31
2018-08-31T05:29:30.540Z,12.34
2018-08-31T05:30:30.564Z,12.35
2018-08-31T05:31:30.528Z,12.32
2018-08-31T05:32:30.542Z,12.17
2018-08-31T05:33:30.491Z,12.31
2018-08-31T05:34:30.482Z,12.35
2018-08-31T05:35:30.468Z,12.27
2018-08-31T05:36:30.495Z,12.37
2018-08-31T05:37:30.437Z,12.35
2018-08-31T05:38:30.421Z,12.35
2018-08-31T05:39:30.414Z,12.49
2018-08-31T05:40:30.395Z,12.39
2018-08-31T05:41:30.371Z,12.38
2018-08-31T05:42:30.407Z,12.38
2018-08-31T05:43:30.367Z,12.35
2018-08-31T05:44:30.343Z,12.39
2018-08-31T05:45:30.335Z,12.41
2018-08-31T05:46:30.314Z,12.45
2018-08-31T05:47:30.325Z,12.50
2018-08-31T05:48:30.312Z,12.47
2018-08-31T05:49:30.280Z,12.45
2018-08-31T05:50:30.261Z,12.56
2018-08-31T05:51:30.233Z,12.54
2018-08-31T05:52:30.236Z,12.52
2018-08-31T05:53:30.443Z,12.56
2018-08-31T05:54:30.213Z,12.57
2018-08-31T05:55:30.189Z,12.59
2018-08-31T05:56:30.182Z,12.59
2018-08-31T05:57:30.151Z,12.62
2018-08-31T05:58:30.149Z,12.60
2018-08-31T05:59:30.163Z,12.53
2018-08-31T06:00:30.107Z,12.56
2018-08-31T06:01:30.110Z,12.56
2018-08-31T06:02:30.103Z,12.52
2018-08-31T06:03:30.129Z,12.54
2018-08-31T06:04:30.062Z,12.54
2018-08-31T06:05:30.047Z,12.53
2018-08-31T06:06:30.035Z,12.57
2018-08-31T06:07:30.016Z,12.52
2018-08-31T06:08:30.014Z,12.54
2018-08-31T06:09:30.329Z,12.54
2018-08-31T06:10:29.974Z,12.60
2018-08-31T06:11:29.977Z,12.39
2018-08-31T06:12:29.953Z,12.39
2018-08-31T06:13:29.945Z,12.47
2018-08-31T06:14:29.936Z,12.42
2018-08-31T06:15:29.915Z,12.46
2018-08-31T06:16:29.896Z,12.46
2018-08-31T06:17:29.877Z,12.46
2018-08-31T06:18:29.875Z,12.39
2018-08-31T06:19:29.892Z,12.53
2018-08-31T06:20:29.848Z,12.39
2018-08-31T06:21:29.825Z,12.56
2018-08-31T06:22:29.811Z,12.56
2018-08-31T06:23:29.824Z,12.54
2018-08-31T06:24:29.784Z,12.54
2018-08-31T06:25:29.811Z,12.54
2018-08-31T06:26:29.768Z,12.47
2018-08-31T06:27:29.750Z,12.56
2018-08-31T06:28:29.726Z,12.53
2018-08-31T06:29:31.858Z,12.52
2018-08-31T06:30:29.740Z,12.45
2018-08-31T06:31:29.693Z,12.52
2018-08-31T06:32:29.697Z,12.50
2018-08-31T06:33:29.705Z,12.52
2018-08-31T06:34:29.653Z,12.54
2018-08-31T06:35:29.642Z,12.59
2018-08-31T06:36:29.656Z,12.53
2018-08-31T06:37:29.646Z,12.62
2018-08-31T06:38:29.589Z,12.65
2018-08-31T06:39:29.589Z,12.72
2018-08-31T06:40:29.563Z,12.71
2018-08-31T06:41:29.559Z,12.71
2018-08-31T06:42:29.600Z,12.70
2018-08-31T06:43:29.527Z,12.72
2018-08-31T06:44:29.514Z,12.67
2018-08-31T06:45:29.513Z,12.74
2018-08-31T06:46:29.495Z,12.74
2018-08-31T06:47:29.483Z,12.75
2018-08-31T06:48:29.488Z,12.77
2018-08-31T06:49:29.450Z,12.86
2018-08-31T06:50:29.430Z,12.92
2018-08-31T06:51:29.441Z,12.90
2018-08-31T06:52:29.407Z,12.96
2018-08-31T06:53:29.429Z,13.01
2018-08-31T06:54:29.387Z,13.08
2018-08-31T06:55:29.378Z,13.10
2018-08-31T06:56:29.359Z,13.15
2018-08-31T06:57:29.352Z,13.20
2018-08-31T06:58:29.359Z,13.22
2018-08-31T06:59:29.309Z,13.30
2018-08-31T07:00:29.322Z,13.32
2018-08-31T07:01:29.291Z,13.41
2018-08-31T07:02:29.290Z,13.45
2018-08-31T07:03:29.264Z,13.46
2018-08-31T07:04:29.260Z,13.51
2018-08-31T07:05:29.230Z,13.48
2018-08-31T07:06:29.227Z,13.48
2018-08-31T07:07:29.205Z,13.70
2018-08-31T07:08:29.203Z,13.71
2018-08-31T07:09:29.223Z,13.78
2018-08-31T07:10:29.166Z,13.84
2018-08-31T07:11:29.228Z,13.84
2018-08-31T07:12:29.208Z,13.91
2018-08-31T07:13:29.136Z,13.99
2018-08-31T07:14:29.122Z,14.04
2018-08-31T07:15:29.119Z,14.07
2018-08-31T07:16:29.093Z,14.10
2018-08-31T07:17:29.085Z,14.18
2018-08-31T07:18:29.072Z,14.24
2018-08-31T07:19:29.094Z,14.22
2018-08-31T07:20:29.077Z,14.21
2018-08-31T07:21:29.036Z,14.20
2018-08-31T07:22:29.027Z,14.21
2018-08-31T07:23:29.047Z,14.28
2018-08-31T07:24:29.018Z,14.42
2018-08-31T07:25:28.986Z,14.36
2018-08-31T07:26:29.078Z,14.36
2018-08-31T07:27:28.996Z,14.35
2018-08-31T07:28:28.953Z,14.46
2018-08-31T07:29:28.942Z,14.50
2018-08-31T07:30:28.938Z,14.51
2018-08-31T07:31:28.924Z,14.55
2018-08-31T07:32:28.982Z,14.51
2018-08-31T07:33:28.890Z,14.69
2018-08-31T07:34:28.871Z,14.70
2018-08-31T07:35:28.867Z,14.68
2018-08-31T07:36:28.922Z,14.78
2018-08-31T07:37:28.842Z,14.73
2018-08-31T07:38:28.869Z,14.81
2018-08-31T07:39:28.822Z,14.84
2018-08-31T07:40:28.806Z,14.91
2018-08-31T07:41:28.797Z,14.75
2018-08-31T07:42:28.784Z,14.77
2018-08-31T07:43:28.843Z,14.92
2018-08-31T07:44:28.765Z,14.88
2018-08-31T07:45:28.750Z,14.86
2018-08-31T07:46:28.745Z,14.88
2018-08-31T07:47:28.740Z,14.84
2018-08-31T07:48:28.718Z,14.83
2018-08-31T07:49:28.715Z,14.88
2018-08-31T07:50:28.695Z,14.86
2018-08-31T07:51:28.684Z,14.99
2018-08-31T07:52:28.672Z,14.88
2018-08-31T07:53:28.686Z,14.89
2018-08-31T07:54:28.681Z,14.83
2018-08-31T07:55:28.650Z,14.84
2018-08-31T07:56:28.620Z,14.89
2018-08-31T07:57:28.614Z,14.98
2018-08-31T07:58:28.604Z,14.98
2018-08-31T07:59:28.878Z,14.95
2018-08-31T08:00:28.573Z,14.98
2018-08-31T08:01:28.569Z,14.95
2018-08-31T08:02:28.559Z,14.99
2018-08-31T08:03:28.544Z,15.03
2018-08-31T08:04:28.534Z,15.02
2018-08-31T08:05:28.562Z,15.13
2018-08-31T08:06:28.495Z,15.17
2018-08-31T08:07:28.527Z,15.11
2018-08-31T08:08:28.487Z,15.16
2018-08-31T08:09:28.503Z,15.16
2018-08-31T08:10:28.464Z,15.13
2018-08-31T08:11:28.457Z,15.14
2018-08-31T08:12:28.440Z,15.07
2018-08-31T08:13:28.434Z,15.13
2018-08-31T08:14:28.453Z,15.20
2018-08-31T08:15:28.411Z,15.27
2018-08-31T08:16:28.391Z,15.21
2018-08-31T08:17:28.372Z,15.19
2018-08-31T08:18:28.365Z,15.25
2018-08-31T08:19:28.365Z,15.17
2018-08-31T08:20:28.337Z,15.17
2018-08-31T08:21:28.436Z,15.23
2018-08-31T08:22:28.330Z,15.16
2018-08-31T08:23:28.317Z,15.19
2018-08-31T08:24:28.300Z,15.13
2018-08-31T08:25:28.281Z,15.23
2018-08-31T08:26:28.326Z,15.32
2018-08-31T08:27:28.291Z,15.39
2018-08-31T08:28:28.276Z,15.38
2018-08-31T08:29:28.433Z,15.36
2018-08-31T08:30:28.233Z,15.35
2018-08-31T08:31:28.224Z,15.35
2018-08-31T08:32:28.242Z,15.51
2018-08-31T08:33:28.229Z,15.49
2018-08-31T08:34:28.185Z,15.50
2018-08-31T08:35:28.192Z,15.53
2018-08-31T08:36:28.221Z,15.44
2018-08-31T08:37:28.229Z,15.51
2018-08-31T08:38:28.280Z,15.49
2018-08-31T08:39:28.135Z,15.50
2018-08-31T08:40:28.123Z,15.51
2018-08-31T08:41:28.107Z,15.56
2018-08-31T08:42:28.198Z,15.51
2018-08-31T08:43:28.115Z,15.53
2018-08-31T08:44:28.075Z,15.53
2018-08-31T08:45:28.091Z,15.60
2018-08-31T08:46:28.058Z,15.65
2018-08-31T08:47:28.047Z,15.54
2018-08-31T08:48:28.132Z,15.65
2018-08-31T08:49:28.017Z,15.64
2018-08-31T08:50:28.040Z,15.64
2018-08-31T08:51:28.003Z,15.59
2018-08-31T08:52:27.989Z,15.62
2018-08-31T08:53:27.980Z,15.68
2018-08-31T08:54:28.004Z,15.71
2018-08-31T08:55:27.950Z,15.71
2018-08-31T08:56:27.946Z,15.67
2018-08-31T08:57:27.930Z,15.68
2018-08-31T08:58:27.918Z,15.67
2018-08-31T08:59:27.946Z,15.69
2018-08-31T09:00:27.901Z,15.72
2018-08-31T09:01:27.902Z,15.80
2018-08-31T09:02:27.877Z,15.76
2018-08-31T09:03:27.872Z,15.78
2018-08-31T09:04:27.886Z,15.76
2018-08-31T09:05:27.877Z,15.76
2018-08-31T09:06:27.947Z,15.75
2018-08-31T09:07:27.816Z,15.75
2018-08-31T09:08:27.818Z,15.78
2018-08-31T09:09:27.791Z,15.76
2018-08-31T09:10:27.804Z,15.75
2018-08-31T09:11:27.784Z,15.78
2018-08-31T09:12:27.853Z,15.76
2018-08-31T09:13:27.761Z,15.82
2018-08-31T09:14:27.765Z,15.80
2018-08-31T09:15:27.734Z,15.84
2018-08-31T09:16:27.721Z,15.83
2018-08-31T09:17:27.721Z,15.89
2018-08-31T09:18:27.784Z,15.86
2018-08-31T09:19:27.689Z,15.94
2018-08-31T09:20:27.679Z,15.90
2018-08-31T09:21:27.676Z,15.93
2018-08-31T09:22:27.657Z,15.97
2018-08-31T09:23:27.680Z,16.12
2018-08-31T09:24:27.701Z,16.11
2018-08-31T09:25:27.634Z,16.24
2018-08-31T09:26:27.623Z,16.38
2018-08-31T09:27:27.600Z,16.33
2018-08-31T09:28:27.601Z,16.30
2018-08-31T09:29:27.587Z,16.43
2018-08-31T09:30:27.580Z,16.42
2018-08-31T09:31:27.567Z,16.43
2018-08-31T09:32:27.576Z,16.42
2018-08-31T09:33:27.559Z,16.48
2018-08-31T09:34:27.565Z,16.42
2018-08-31T09:35:27.625Z,16.52
2018-08-31T09:36:27.513Z,16.50
2018-08-31T09:37:27.505Z,16.49
2018-08-31T09:38:27.646Z,16.52
2018-08-31T09:39:27.480Z,16.45
2018-08-31T09:40:27.504Z,16.38
2018-08-31T09:41:27.469Z,16.39
2018-08-31T09:42:27.455Z,16.43
2018-08-31T09:43:27.455Z,16.43
2018-08-31T09:44:27.441Z,16.49
2018-08-31T09:45:27.421Z,16.48
2018-08-31T09:46:27.411Z,16.45
2018-08-31T09:47:27.410Z,16.45
2018-08-31T09:48:27.398Z,16.41
2018-08-31T09:49:27.411Z,16.42
2018-08-31T09:50:27.373Z,16.42
2018-08-31T09:51:27.355Z,16.50
2018-08-31T09:52:27.352Z,16.56
2018-08-31T09:53:27.350Z,16.56
2018-08-31T09:54:27.388Z,16.70
2018-08-31T09:55:27.321Z,16.71
2018-08-31T09:56:27.308Z,16.75
2018-08-31T09:57:27.317Z,16.81
2018-08-31T09:58:27.292Z,16.73
2018-08-31T09:59:27.283Z,16.76
2018-08-31T10:00:27.310Z,16.71
2018-08-31T10:01:27.260Z,16.76
2018-08-31T10:02:27.260Z,16.76
2018-08-31T10:03:27.241Z,16.71
2018-08-31T10:04:27.232Z,16.70
2018-08-31T10:05:27.251Z,16.66
2018-08-31T10:06:27.208Z,16.66
2018-08-31T10:07:27.207Z,16.73
2018-08-31T10:08:27.185Z,16.68
2018-08-31T10:09:27.194Z,16.68
2018-08-31T10:10:27.204Z,16.73
2018-08-31T10:11:27.160Z,16.81
2018-08-31T10:12:27.147Z,16.88
2018-08-31T10:13:27.574Z,16.85
2018-08-31T10:14:27.133Z,16.85
2018-08-31T10:15:27.117Z,16.85
2018-08-31T10:16:27.111Z,16.96
2018-08-31T10:17:27.118Z,16.94
2018-08-31T10:18:27.085Z,16.98
2018-08-31T10:19:27.094Z,17.04
2018-08-31T10:20:27.070Z,17.07
2018-08-31T10:21:27.066Z,17.18
2018-08-31T10:22:27.387Z,17.04
2018-08-31T10:23:27.040Z,16.98
2018-08-31T10:24:27.037Z,17.00
2018-08-31T10:25:27.025Z,17.08
2018-08-31T10:26:27.028Z,16.98
2018-08-31T10:27:27.011Z,17.04
2018-08-31T10:28:27.001Z,17.11
2018-08-31T10:29:26.989Z,17.16
2018-08-31T10:30:26.978Z,17.12
2018-08-31T10:31:26.962Z,17.08
2018-08-31T10:32:27.291Z,17.12
2018-08-31T10:33:26.944Z,17.26
2018-08-31T10:34:26.940Z,17.44
2018-08-31T10:35:26.936Z,17.48
2018-08-31T10:36:26.931Z,17.37
2018-08-31T10:37:26.917Z,17.23
2018-08-31T10:38:26.913Z,17.26
2018-08-31T10:39:27.171Z,17.15
2018-08-31T10:40:26.881Z,17.14
2018-08-31T10:41:26.882Z,17.15
2018-08-31T10:42:26.872Z,17.15
2018-08-31T10:43:26.872Z,17.12
2018-08-31T10:44:26.883Z,17.16
2018-08-31T10:45:26.839Z,17.21
2018-08-31T10:46:26.868Z,17.06
2018-08-31T10:47:26.825Z,17.19
2018-08-31T10:48:26.809Z,17.15
2018-08-31T10:49:26.863Z,17.15
2018-08-31T10:50:26.788Z,17.28
2018-08-31T10:51:26.787Z,17.19
2018-08-31T10:52:26.776Z,17.34
2018-08-31T10:53:26.761Z,17.40
2018-08-31T10:54:26.757Z,17.43
2018-08-31T10:55:26.745Z,17.40
2018-08-31T10:56:26.731Z,17.28
2018-08-31T10:57:26.727Z,17.30
2018-08-31T10:58:26.716Z,17.21
2018-08-31T10:59:26.716Z,17.33
2018-08-31T11:00:26.704Z,17.23
2018-08-31T11:01:26.684Z,17.19
2018-08-31T11:02:26.742Z,17.15
2018-08-31T11:03:26.678Z,17.16
2018-08-31T11:04:26.671Z,17.12
2018-08-31T11:05:26.664Z,17.12
2018-08-31T11:06:26.643Z,17.23
2018-08-31T11:07:26.634Z,17.25
2018-08-31T11:08:26.614Z,17.36
2018-08-31T11:09:26.619Z,17.43
2018-08-31T11:10:26.608Z,17.38
2018-08-31T11:11:26.613Z,17.46
2018-08-31T11:12:26.613Z,17.49
2018-08-31T11:13:26.587Z,17.46
2018-08-31T11:14:26.576Z,17.56
2018-08-31T11:15:26.563Z,17.56
2018-08-31T11:16:26.547Z,17.64
2018-08-31T11:17:26.532Z,17.59
2018-08-31T11:18:26.522Z,17.58
2018-08-31T11:19:26.523Z,17.54
2018-08-31T11:20:26.891Z,17.54
2018-08-31T11:21:26.507Z,17.55
2018-08-31T11:22:26.489Z,17.64
2018-08-31T11:23:26.484Z,17.63
2018-08-31T11:24:26.481Z,17.74
2018-08-31T11:25:26.462Z,17.70
2018-08-31T11:26:26.496Z,17.70
2018-08-31T11:27:26.446Z,17.58
2018-08-31T11:28:26.439Z,17.51
2018-08-31T11:29:26.425Z,17.54
2018-08-31T11:30:26.426Z,17.48
2018-08-31T11:31:26.439Z,17.51
2018-08-31T11:32:26.405Z,17.59
2018-08-31T11:33:26.396Z,17.68
2018-08-31T11:34:26.381Z,17.79
2018-08-31T11:35:26.376Z,17.89
2018-08-31T11:36:26.362Z,17.93
2018-08-31T11:37:26.357Z,17.97
2018-08-31T11:38:26.345Z,18.02
2018-08-31T11:39:26.336Z,17.93
2018-08-31T11:40:26.328Z,18.07
2018-08-31T11:41:26.315Z,18.03
2018-08-31T11:42:26.519Z,18.00
2018-08-31T11:43:26.387Z,17.93
2018-08-31T11:44:26.288Z,18.03
2018-08-31T11:45:26.279Z,18.02
2018-08-31T11:46:26.264Z,18.12
2018-08-31T11:47:26.269Z,18.17
2018-08-31T11:48:26.284Z,18.20
2018-08-31T11:49:26.238Z,18.17
2018-08-31T11:50:26.244Z,18.18
2018-08-31T11:51:26.231Z,18.35
2018-08-31T11:52:26.229Z,18.29
2018-08-31T11:53:26.237Z,18.26
2018-08-31T11:54:26.209Z,18.17
2018-08-31T11:55:26.199Z,18.23
2018-08-31T11:56:26.190Z,18.17
2018-08-31T11:57:26.178Z,18.11
2018-08-31T11:58:26.229Z,18.02
2018-08-31T11:59:26.154Z,18.11
2018-08-31T12:00:26.148Z,18.18
2018-08-31T12:01:26.223Z,18.25
2018-08-31T12:02:26.138Z,18.32
2018-08-31T12:03:26.131Z,18.39
2018-08-31T12:04:26.152Z,18.39
2018-08-31T12:05:26.110Z,18.48
2018-08-31T12:06:26.097Z,18.47
2018-08-31T12:07:26.100Z,18.37
2018-08-31T12:08:26.111Z,18.36
2018-08-31T12:09:26.066Z,18.35
2018-08-31T12:10:26.083Z,18.36
2018-08-31T12:11:26.058Z,18.42
2018-08-31T12:12:26.041Z,18.42
2018-08-31T12:13:26.039Z,18.39
2018-08-31T12:14:26.036Z,18.41
2018-08-31T12:15:26.020Z,18.50
2018-08-31T12:16:26.007Z,18.52
2018-08-31T12:17:26.005Z,18.70
2018-08-31T12:18:26.028Z,18.72
2018-08-31T12:19:25.980Z,18.73
2018-08-31T12:20:25.979Z,18.76
2018-08-31T12:21:25.975Z,18.80
2018-08-31T12:22:25.966Z,18.73
2018-08-31T12:23:25.943Z,18.62
2018-08-31T12:24:25.948Z,18.63
2018-08-31T12:25:25.926Z,18.70
2018-08-31T12:26:25.928Z,18.65
2018-08-31T12:27:25.929Z,18.72
2018-08-31T12:28:25.910Z,18.66
2018-08-31T12:29:25.965Z,18.72
2018-08-31T12:30:25.888Z,18.63
2018-08-31T12:31:25.887Z,18.67
2018-08-31T12:32:25.869Z,18.75
2018-08-31T12:33:25.873Z,18.66
2018-08-31T12:34:25.856Z,18.69
2018-08-31T12:35:25.883Z,18.84
2018-08-31T12:36:25.843Z,18.91
2018-08-31T12:37:25.832Z,18.84
2018-08-31T12:38:25.818Z,18.80
2018-08-31T12:39:25.867Z,18.80
2018-08-31T12:40:25.819Z,18.67
2018-08-31T12:41:25.805Z,18.54
2018-08-31T12:42:25.799Z,18.58
2018-08-31T12:43:25.786Z,18.51
2018-08-31T12:44:25.779Z,18.55
2018-08-31T12:45:25.772Z,18.51
2018-08-31T12:46:25.762Z,18.37
2018-08-31T12:47:26.063Z,18.47
2018-08-31T12:48:25.736Z,18.50
2018-08-31T12:49:25.742Z,18.47
2018-08-31T12:50:25.733Z,18.37
2018-08-31T12:51:25.722Z,18.39
2018-08-31T12:52:25.747Z,18.35